Time;durP1;ratioP1;P1;durP2;ratioP2;P2;SDS_P1;SDS_P2;PMS_P1;PMS_P2;Temp;Humidity;BMP_temperature;BMP_pressure;BME280_temperature;BME280_humidity;BME280_pressure;Samples;Min_cycle;Max_cycle;Signal;HPM_P1;HPM_P2
2021/04/26 00:00:13;;;;;;;6.90;5.23;;;8.30;77.30;;;;;;5076010;28;20204;-42
2021/04/26 00:02:39;;;;;;;6.10;5.00;;;8.30;77.70;;;;;;5075613;28;20175;-49
2021/04/26 00:05:06;;;;;;;10.50;6.27;;;8.40;77.10;;;;;;5075977;28;20193;-44
2021/04/26 00:07:32;;;;;;;7.37;5.40;;;8.30;76.90;;;;;;5076274;28;20202;-51
2021/04/26 00:09:58;;;;;;;7.27;5.13;;;8.30;77.50;;;;;;5075614;28;20177;-49
2021/04/26 00:12:23;;;;;;;7.90;5.30;;;8.30;77.20;;;;;;5075634;28;20171;-45
2021/04/26 00:14:49;;;;;;;8.20;5.73;;;8.30;77.70;;;;;;5075825;28;20258;-51
2021/04/26 00:17:15;;;;;;;7.40;5.93;;;8.40;77.50;;;;;;5076051;28;20677;-44
2021/04/26 00:19:40;;;;;;;7.63;6.20;;;8.30;77.50;;;;;;5075726;28;20186;-49
2021/04/26 00:22:06;;;;;;;9.80;6.27;;;8.30;77.90;;;;;;5075569;28;20183;-55
2021/04/26 00:24:31;;;;;;;7.53;5.43;;;8.20;78.00;;;;;;5076544;28;20206;-52
2021/04/26 00:26:57;;;;;;;7.77;5.57;;;8.20;78.10;;;;;;5075365;28;20206;-43
2021/04/26 00:29:23;;;;;;;7.57;5.50;;;8.20;77.90;;;;;;5075378;28;20201;-45
2021/04/26 00:31:48;;;;;;;8.43;5.57;;;8.30;77.70;;;;;;5074613;28;20213;-42
2021/04/26 00:34:14;;;;;;;8.23;5.23;;;8.30;77.50;;;;;;5057851;28;20171;-52
2021/04/26 00:36:40;;;;;;;6.67;5.40;;;8.30;77.30;;;;;;5057391;28;20209;-45
2021/04/26 00:39:05;;;;;;;10.30;5.47;;;8.20;77.50;;;;;;5075023;28;20194;-55
2021/04/26 00:41:31;;;;;;;6.63;5.17;;;8.20;78.00;;;;;;5075075;28;20174;-44
2021/04/26 00:43:56;;;;;;;8.17;5.27;;;8.20;78.50;;;;;;5075442;28;20186;-43
2021/04/26 00:46:22;;;;;;;6.50;5.40;;;8.10;78.90;;;;;;5074968;28;20562;-54
2021/04/26 00:48:48;;;;;;;8.97;5.40;;;8.10;79.10;;;;;;5075461;28;20189;-52
2021/04/26 00:51:13;;;;;;;5.80;4.77;;;8.00;79.60;;;;;;5075227;28;20174;-52
2021/04/26 00:53:39;;;;;;;6.87;5.10;;;8.00;80.00;;;;;;5074859;28;20190;-47
2021/04/26 00:56:05;;;;;;;7.10;5.23;;;8.00;80.40;;;;;;5075433;28;20194;-45
2021/04/26 00:58:31;;;;;;;7.97;5.27;;;7.90;80.60;;;;;;5074837;28;20194;-45
2021/04/26 01:00:57;;;;;;;7.70;5.00;;;7.90;80.80;;;;;;5074629;28;20749;-54
2021/04/26 01:03:23;;;;;;;7.77;5.30;;;7.80;81.00;;;;;;5075336;28;20562;-46
2021/04/26 01:05:48;;;;;;;7.73;5.00;;;7.80;81.40;;;;;;5075407;28;20635;-51
2021/04/26 01:08:14;;;;;;;7.77;5.57;;;7.70;81.70;;;;;;5074519;28;20212;-46
2021/04/26 01:10:40;;;;;;;6.30;4.90;;;7.70;82.50;;;;;;5074675;28;20182;-55
2021/04/26 01:13:17;;;;;;;8.00;5.43;;;7.70;82.40;;;;;;5074495;28;20213;-52
2021/04/26 01:16:04;;;;;;;7.70;5.13;;;7.70;82.40;;;;;;5074434;28;20190;-51
2021/04/26 01:18:49;;;;;;;6.20;5.10;;;7.70;82.50;;;;;;5075056;28;20175;-49
2021/04/26 01:21:48;;;;;;;6.00;4.60;;;7.70;82.60;;;;;;5074569;28;20518;-42
2021/04/26 01:24:38;;;;;;;8.43;5.53;;;7.70;82.60;;;;;;5074979;28;20178;-48
2021/04/26 01:27:08;;;;;;;7.03;4.80;;;7.70;82.90;;;;;;5074017;28;20629;-47
2021/04/26 01:29:58;;;;;;;7.57;5.20;;;7.60;83.00;;;;;;5074532;28;20170;-45
2021/04/26 01:32:37;;;;;;;7.80;5.43;;;7.60;83.30;;;;;;5074250;28;20205;-45
2021/04/26 01:35:04;;;;;;;6.27;4.83;;;7.60;83.30;;;;;;5074249;28;20197;-44
2021/04/26 01:37:33;;;;;;;7.67;4.90;;;7.60;83.20;;;;;;5074012;28;20247;-55
2021/04/26 01:40:01;;;;;;;7.97;5.20;;;7.50;83.50;;;;;;5074632;28;20267;-45
2021/04/26 01:42:27;;;;;;;7.50;5.07;;;7.50;83.40;;;;;;5073799;28;20597;-45
2021/04/26 01:44:53;;;;;;;6.13;4.93;;;7.40;83.90;;;;;;5074341;28;20703;-54
2021/04/26 01:47:19;;;;;;;6.63;4.90;;;7.40;84.00;;;;;;5074168;28;20267;-50
2021/04/26 01:49:46;;;;;;;6.03;4.73;;;7.40;84.20;;;;;;5074724;28;20171;-47
2021/04/26 01:52:12;;;;;;;7.20;5.40;;;7.50;83.60;;;;;;5074071;28;20221;-44
2021/04/26 01:54:39;;;;;;;6.97;5.50;;;7.40;83.90;;;;;;5074061;28;20170;-49
2021/04/26 01:57:05;;;;;;;9.40;6.30;;;7.40;84.80;;;;;;5074602;28;20182;-51
2021/04/26 01:59:33;;;;;;;7.93;6.37;;;7.40;84.30;;;;;;5074172;28;20476;-47
2021/04/26 02:01:59;;;;;;;6.97;5.70;;;7.30;84.30;;;;;;5074501;28;20321;-51
2021/04/26 02:04:31;;;;;;;7.33;5.87;;;7.30;84.60;;;;;;5073897;28;20674;-46
2021/04/26 02:06:57;;;;;;;10.37;6.77;;;7.30;84.80;;;;;;5073978;28;20198;-45
2021/04/26 02:09:24;;;;;;;8.87;6.10;;;7.20;84.70;;;;;;5074052;28;20288;-46
2021/04/26 02:11:51;;;;;;;8.17;6.30;;;7.20;85.10;;;;;;5073929;28;20664;-50
2021/04/26 02:14:17;;;;;;;7.40;5.70;;;7.20;85.10;;;;;;5073889;28;20172;-50
2021/04/26 02:16:43;;;;;;;8.07;6.50;;;7.20;85.10;;;;;;5073707;28;20240;-48
2021/04/26 02:19:10;;;;;;;8.03;6.33;;;7.10;85.60;;;;;;5074050;28;20553;-44
2021/04/26 02:21:35;;;;;;;8.30;6.40;;;7.20;85.70;;;;;;5073665;28;20203;-55
2021/04/26 02:24:02;;;;;;;7.27;6.13;;;7.10;85.80;;;;;;5073723;28;20534;-44
2021/04/26 02:26:28;;;;;;;8.63;6.40;;;7.10;85.40;;;;;;5073618;28;20190;-45
2021/04/26 02:28:53;;;;;;;8.10;6.67;;;7.00;85.90;;;;;;5074048;28;20193;-42
2021/04/26 02:31:23;;;;;;;9.93;6.97;;;7.00;86.00;;;;;;5073521;28;20183;-50
2021/04/26 02:33:56;;;;;;;7.57;6.50;;;7.00;85.90;;;;;;5073617;28;20163;-48
2021/04/26 02:36:29;;;;;;;7.70;6.60;;;7.00;86.00;;;;;;5073665;28;20648;-44
2021/04/26 02:38:58;;;;;;;6.57;5.47;;;7.00;86.10;;;;;;5073372;28;20191;-48
2021/04/26 02:41:28;;;;;;;9.27;5.80;;;7.00;86.30;;;;;;5073598;28;20170;-51
2021/04/26 02:43:58;;;;;;;6.03;5.17;;;6.90;86.40;;;;;;5073940;28;20190;-47
2021/04/26 02:46:25;;;;;;;8.27;5.80;;;6.80;86.60;;;;;;5073268;28;20194;-49
2021/04/26 02:48:51;;;;;;;9.13;6.03;;;6.80;86.60;;;;;;5073599;28;20265;-50
2021/04/26 02:51:20;;;;;;;6.70;5.70;;;6.70;87.80;;;;;;5073544;28;20167;-46
2021/04/26 02:53:48;;;;;;;6.57;5.13;;;6.70;87.30;;;;;;5074593;28;20170;-48
2021/04/26 02:56:15;;;;;;;7.17;5.07;;;6.70;87.30;;;;;;5077228;28;20193;-42
2021/04/26 02:58:46;;;;;;;9.73;5.93;;;6.70;87.20;;;;;;5077187;28;20492;-43
2021/04/26 03:01:13;;;;;;;6.90;5.33;;;6.60;87.80;;;;;;5076994;28;20163;-48
2021/04/26 03:03:41;;;;;;;8.33;5.50;;;6.60;87.80;;;;;;5077065;28;20515;-44
2021/04/26 03:06:08;;;;;;;6.90;5.00;;;6.50;88.00;;;;;;5077017;28;20618;-51
2021/04/26 03:08:34;;;;;;;6.33;5.17;;;6.40;88.00;;;;;;5077619;28;20159;-44
2021/04/26 03:11:05;;;;;;;7.17;5.50;;;6.40;88.30;;;;;;5077378;28;20198;-46
2021/04/26 03:13:31;;;;;;;9.07;6.43;;;6.30;88.30;;;;;;5077966;28;20170;-49
2021/04/26 03:15:57;;;;;;;6.77;5.20;;;6.30;88.40;;;;;;5076855;28;20193;-51
2021/04/26 03:18:24;;;;;;;8.07;5.60;;;6.40;88.40;;;;;;5076933;28;20170;-47
2021/04/26 03:20:50;;;;;;;7.67;6.00;;;6.40;88.30;;;;;;5077442;28;20190;-42
2021/04/26 03:23:19;;;;;;;8.43;5.80;;;6.30;88.60;;;;;;5076877;28;20179;-49
2021/04/26 03:25:45;;;;;;;7.13;5.60;;;6.30;89.40;;;;;;5077667;28;20214;-46
2021/04/26 03:28:11;;;;;;;7.83;5.43;;;6.20;88.80;;;;;;5077435;28;20194;-49
2021/04/26 03:30:37;;;;;;;7.60;5.27;;;6.20;88.80;;;;;;5077006;28;20166;-47
2021/04/26 03:33:04;;;;;;;7.57;5.40;;;6.10;88.80;;;;;;5076542;28;20166;-47
2021/04/26 03:35:29;;;;;;;7.73;5.10;;;6.10;89.40;;;;;;5077170;28;20216;-49
2021/04/26 03:37:55;;;;;;;6.73;5.20;;;6.10;89.40;;;;;;5076770;28;20194;-50
2021/04/26 03:40:23;;;;;;;9.00;5.70;;;6.10;89.60;;;;;;5075105;28;20200;-49
2021/04/26 03:42:54;;;;;;;8.77;5.60;;;6.10;89.80;;;;;;5076446;28;20178;-50
2021/04/26 03:45:20;;;;;;;7.70;5.13;;;6.00;89.80;;;;;;5076299;28;20657;-52
2021/04/26 03:47:46;;;;;;;7.63;4.80;;;5.90;89.80;;;;;;5075574;28;20190;-53
2021/04/26 03:50:13;;;;;;;6.93;4.97;;;5.90;89.90;;;;;;5025459;28;20171;-44
2021/04/26 03:52:39;;;;;;;6.83;4.80;;;5.90;90.00;;;;;;5066731;28;20182;-49
2021/04/26 03:55:06;;;;;;;6.63;4.60;;;5.90;90.00;;;;;;5064276;28;20183;-47
2021/04/26 03:57:32;;;;;;;6.23;5.17;;;5.90;90.00;;;;;;5064958;28;20333;-43
2021/04/26 03:59:58;;;;;;;8.13;5.03;;;5.90;90.00;;;;;;5062920;28;20659;-50
2021/04/26 04:02:27;;;;;;;7.30;4.87;;;5.90;90.00;;;;;;5064025;28;20167;-52
2021/04/26 04:04:55;;;;;;;7.17;4.90;;;5.90;89.90;;;;;;5059195;28;20175;-55
2021/04/26 04:07:20;;;;;;;7.13;4.97;;;5.90;89.50;;;;;;5063961;28;20202;-43
2021/04/26 04:09:46;;;;;;;5.93;5.10;;;6.00;89.40;;;;;;5065009;28;20166;-43
2021/04/26 04:12:12;;;;;;;6.63;4.50;;;6.00;89.40;;;;;;5065386;28;20580;-46
2021/04/26 04:14:37;;;;;;;6.93;5.00;;;6.00;89.70;;;;;;5063603;28;20168;-49
2021/04/26 04:17:03;;;;;;;8.43;5.27;;;5.90;89.90;;;;;;5065909;28;20726;-48
2021/04/26 04:19:29;;;;;;;6.33;4.77;;;5.90;90.30;;;;;;5064660;28;20194;-52
2021/04/26 04:21:55;;;;;;;6.77;4.90;;;5.90;90.20;;;;;;5064475;28;20530;-48
2021/04/26 04:24:20;;;;;;;6.67;4.57;;;6.00;90.10;;;;;;5066314;28;20178;-47
2021/04/26 04:26:46;;;;;;;6.63;4.87;;;6.00;90.10;;;;;;5065280;28;20567;-46
2021/04/26 04:29:12;;;;;;;5.80;4.77;;;6.00;90.20;;;;;;5075783;28;20630;-43
2021/04/26 04:31:37;;;;;;;7.90;5.20;;;5.90;90.00;;;;;;5075000;28;20206;-46
2021/04/26 04:34:03;;;;;;;6.13;4.30;;;5.90;89.60;;;;;;5075978;28;20170;-47
2021/04/26 04:36:29;;;;;;;7.63;5.10;;;5.90;89.30;;;;;;5074936;28;20650;-50
2021/04/26 04:38:55;;;;;;;6.17;5.07;;;6.00;89.30;;;;;;5083761;28;20551;-43
2021/04/26 04:41:21;;;;;;;6.77;4.53;;;5.90;89.60;;;;;;5085470;28;20186;-51
2021/04/26 04:43:46;;;;;;;5.47;4.60;;;6.00;89.50;;;;;;5089773;28;20193;-44
2021/04/26 04:46:12;;;;;;;7.53;4.70;;;6.10;90.20;;;;;;5077427;28;20246;-52
2021/04/26 04:48:38;;;;;;;7.03;4.60;;;6.10;90.20;;;;;;5059515;28;20181;-43
2021/04/26 04:51:03;;;;;;;5.97;4.90;;;6.10;90.20;;;;;;5074931;28;20197;-46
2021/04/26 04:53:29;;;;;;;7.10;5.20;;;6.20;90.30;;;;;;5089246;28;20177;-54
2021/04/26 04:55:55;;;;;;;6.37;4.90;;;6.20;90.30;;;;;;5076651;28;20194;-46
2021/04/26 04:58:20;;;;;;;6.20;4.93;;;6.30;90.10;;;;;;5084030;28;20569;-45
2021/04/26 05:00:46;;;;;;;6.87;4.93;;;6.40;90.20;;;;;;5052319;28;20651;-54
2021/04/26 05:03:11;;;;;;;9.13;5.27;;;6.40;90.50;;;;;;5078603;28;20174;-56
2021/04/26 05:05:37;;;;;;;7.43;5.10;;;6.40;90.20;;;;;;5066278;28;20217;-47
2021/04/26 05:08:03;;;;;;;6.87;5.30;;;6.50;90.20;;;;;;5067255;28;20255;-50
2021/04/26 05:10:29;;;;;;;5.53;4.83;;;6.50;90.40;;;;;;5076046;28;20216;-47
2021/04/26 05:12:54;;;;;;;6.67;4.50;;;6.60;90.30;;;;;;5086386;28;20171;-44
2021/04/26 05:15:20;;;;;;;6.13;4.53;;;6.60;90.00;;;;;;5066813;28;20193;-49
2021/04/26 05:17:46;;;;;;;6.83;4.43;;;6.70;89.40;;;;;;5067035;28;20198;-51
2021/04/26 05:20:12;;;;;;;6.50;4.70;;;6.70;89.20;;;;;;5072380;28;20202;-43
2021/04/26 05:22:40;;;;;;;6.60;5.20;;;6.90;89.40;;;;;;5071123;28;20200;-50
2021/04/26 05:25:08;;;;;;;7.20;5.13;;;6.80;89.00;;;;;;5055490;28;20594;-49
2021/04/26 05:27:35;;;;;;;7.67;5.30;;;6.90;89.70;;;;;;5064304;28;20230;-53
2021/04/26 05:30:00;;;;;;;7.33;5.33;;;6.90;88.70;;;;;;5060777;28;20587;-44
2021/04/26 05:32:26;;;;;;;8.57;5.77;;;7.00;88.60;;;;;;5063129;28;20190;-44
2021/04/26 05:34:51;;;;;;;7.93;5.10;;;7.00;87.90;;;;;;5062940;28;20266;-50
2021/04/26 05:37:17;;;;;;;8.23;4.97;;;7.00;87.90;;;;;;5064651;28;20205;-52
2021/04/26 05:39:42;;;;;;;6.93;5.67;;;7.00;87.70;;;;;;5061584;28;20589;-45
2021/04/26 05:42:08;;;;;;;7.37;5.73;;;7.10;86.90;;;;;;5063937;28;20263;-52
2021/04/26 05:44:34;;;;;;;7.00;5.30;;;7.20;87.70;;;;;;5063604;28;20183;-45
2021/04/26 05:46:59;;;;;;;9.10;5.23;;;7.30;87.60;;;;;;5062662;28;20198;-46
2021/04/26 05:49:25;;;;;;;7.97;5.53;;;7.50;87.50;;;;;;5064236;28;20640;-43
2021/04/26 05:51:50;;;;;;;7.93;5.70;;;7.60;87.70;;;;;;5063802;28;20171;-44
2021/04/26 05:54:17;;;;;;;6.77;5.53;;;7.70;86.90;;;;;;5060218;28;20171;-45
2021/04/26 05:56:43;;;;;;;8.07;5.53;;;7.70;85.30;;;;;;5069577;28;21446;-48
2021/04/26 05:59:08;;;;;;;6.93;4.40;;;7.70;84.80;;;;;;5072417;28;20197;-48
2021/04/26 06:01:34;;;;;;;7.10;4.67;;;7.70;84.90;;;;;;5073033;28;20213;-42
2021/04/26 06:03:59;;;;;;;5.53;3.53;;;7.70;84.40;;;;;;5074264;28;20182;-45
2021/04/26 06:06:27;;;;;;;5.70;4.63;;;7.70;84.10;;;;;;5063082;28;20272;-56
2021/04/26 06:08:53;;;;;;;6.67;4.70;;;7.90;85.80;;;;;;5093350;28;20235;-48
2021/04/26 06:11:18;;;;;;;6.43;4.30;;;7.90;85.80;;;;;;5093000;28;20242;-49
2021/04/26 06:13:44;;;;;;;5.20;4.43;;;8.00;85.80;;;;;;5092960;28;20533;-50
2021/04/26 06:16:09;;;;;;;24.60;7.73;;;8.20;85.90;;;;;;5093601;28;20272;-53
2021/04/26 06:18:35;;;;;;;6.60;4.40;;;8.40;86.30;;;;;;5093820;28;20181;-55
2021/04/26 06:21:01;;;;;;;5.57;4.47;;;8.40;84.00;;;;;;5059314;28;20201;-51
2021/04/26 06:23:26;;;;;;;7.33;4.47;;;8.50;85.30;;;;;;5076431;28;20169;-45
2021/04/26 06:25:52;;;;;;;5.80;4.53;;;8.70;85.30;;;;;;5093054;28;20260;-49
2021/04/26 06:28:18;;;;;;;8.20;4.67;;;8.70;84.30;;;;;;5094657;28;20198;-50
2021/04/26 06:30:45;;;;;;;5.77;4.53;;;8.70;85.60;;;;;;5098210;28;20657;-50
2021/04/26 06:33:17;;;;;;;6.20;4.53;;;8.70;85.00;;;;;;5081152;28;20204;-45
2021/04/26 06:35:50;;;;;;;7.47;4.47;;;8.80;84.80;;;;;;5072045;28;20221;-49
2021/04/26 06:38:17;;;;;;;5.43;4.33;;;9.00;85.10;;;;;;5077766;28;20198;-47
2021/04/26 06:40:43;;;;;;;7.33;5.00;;;9.10;86.40;;;;;;5077974;28;20610;-44
2021/04/26 06:43:10;;;;;;;5.20;4.37;;;9.20;85.80;;;;;;5077254;28;20186;-47
2021/04/26 06:45:36;;;;;;;7.23;4.37;;;9.30;87.10;;;;;;5077838;28;20185;-49
2021/04/26 06:48:02;;;;;;;5.37;4.30;;;9.40;86.50;;;;;;5076425;28;20281;-53
2021/04/26 06:50:28;;;;;;;5.50;4.30;;;9.40;84.40;;;;;;5077481;28;20174;-52
2021/04/26 06:52:55;;;;;;;7.53;4.17;;;9.60;84.80;;;;;;5076602;28;20236;-48
2021/04/26 06:55:21;;;;;;;4.87;4.00;;;9.60;85.00;;;;;;5077393;28;20188;-45
2021/04/26 06:57:47;;;;;;;7.23;4.53;;;9.80;84.50;;;;;;5077298;28;20170;-53
2021/04/26 07:00:13;;;;;;;5.43;4.50;;;9.90;84.00;;;;;;5077126;28;20167;-48
2021/04/26 07:02:39;;;;;;;6.00;4.40;;;10.10;81.10;;;;;;5059518;28;20179;-46
2021/04/26 07:05:06;;;;;;;6.07;4.20;;;10.00;79.60;;;;;;5056958;28;20253;-52
2021/04/26 07:07:32;;;;;;;6.97;4.20;;;10.00;80.00;;;;;;5055360;28;20238;-50
2021/04/26 07:09:57;;;;;;;6.23;4.43;;;10.00;79.70;;;;;;5055890;28;20178;-47
2021/04/26 07:12:23;;;;;;;4.20;3.80;;;10.10;80.20;;;;;;5055850;28;20202;-53
2021/04/26 07:14:49;;;;;;;4.90;4.00;;;10.20;78.50;;;;;;5054920;28;20178;-55
2021/04/26 07:17:15;;;;;;;7.20;3.90;;;10.40;79.80;;;;;;5055851;28;20195;-48
2021/04/26 07:19:40;;;;;;;6.10;3.93;;;10.40;77.20;;;;;;5056186;28;20216;-47
2021/04/26 07:22:06;;;;;;;5.07;3.80;;;10.50;76.40;;;;;;5056949;28;20189;-49
2021/04/26 07:24:31;;;;;;;4.97;3.20;;;10.60;76.70;;;;;;5057095;28;20171;-54
2021/04/26 07:26:57;;;;;;;3.87;3.43;;;10.70;76.10;;;;;;5057103;28;20210;-43
2021/04/26 07:29:23;;;;;;;4.27;3.80;;;10.70;75.20;;;;;;5069410;28;20521;-52
2021/04/26 07:31:48;;;;;;;5.70;3.43;;;10.60;73.60;;;;;;5076615;28;20194;-44
2021/04/26 07:34:14;;;;;;;5.50;3.80;;;10.60;74.70;;;;;;5076426;28;20239;-50
2021/04/26 07:36:40;;;;;;;5.67;3.67;;;10.70;75.80;;;;;;5076652;28;20190;-47
2021/04/26 07:39:06;;;;;;;4.60;3.67;;;10.80;73.70;;;;;;5076477;28;20266;-52
2021/04/26 07:41:31;;;;;;;8.63;3.97;;;10.80;73.50;;;;;;5076459;28;20511;-49
2021/04/26 07:43:57;;;;;;;3.93;3.23;;;10.90;73.50;;;;;;5076472;28;20170;-46
2021/04/26 07:46:23;;;;;;;6.10;3.80;;;11.00;73.70;;;;;;5075879;28;20237;-51
2021/04/26 07:48:49;;;;;;;5.43;3.50;;;11.10;72.60;;;;;;5076342;28;20181;-52
2021/04/26 07:51:14;;;;;;;6.63;3.70;;;11.20;74.40;;;;;;5076461;28;20220;-45
2021/04/26 07:53:40;;;;;;;4.97;3.90;;;11.40;75.50;;;;;;5076107;28;20553;-48
2021/04/26 07:56:06;;;;;;;4.13;3.33;;;11.60;74.30;;;;;;5075987;28;20241;-47
2021/04/26 07:58:31;;;;;;;5.33;3.50;;;11.60;73.70;;;;;;5076523;28;20179;-49
2021/04/26 08:01:00;;;;;;;5.20;3.50;;;11.70;72.30;;;;;;5075574;28;20272;-45
2021/04/26 08:03:25;;;;;;;4.33;3.17;;;11.70;72.00;;;;;;5076865;28;20186;-47
2021/04/26 08:05:52;;;;;;;6.07;3.57;;;11.70;72.00;;;;;;5075826;28;20198;-54
2021/04/26 08:08:17;;;;;;;5.83;3.43;;;11.60;70.10;;;;;;5076108;28;20210;-43
2021/04/26 08:10:43;;;;;;;4.60;3.73;;;11.30;73.90;;;;;;5075468;28;20166;-49
2021/04/26 08:13:09;;;;;;;4.80;3.67;;;11.40;72.00;;;;;;5075647;28;20174;-50
2021/04/26 08:15:35;;;;;;;4.00;3.43;;;11.40;71.90;;;;;;5075787;28;20179;-48
2021/04/26 08:18:01;;;;;;;4.33;3.50;;;11.50;73.40;;;;;;5075731;28;20561;-45
2021/04/26 08:20:27;;;;;;;4.33;3.30;;;11.60;72.80;;;;;;5075183;28;20182;-47
2021/04/26 08:22:52;;;;;;;4.77;3.17;;;11.90;74.40;;;;;;5075811;28;20202;-53
2021/04/26 08:25:18;;;;;;;4.53;3.63;;;12.20;73.10;;;;;;5074725;28;20206;-43
2021/04/26 08:27:44;;;;;;;6.93;3.90;;;12.00;68.10;;;;;;5074910;28;20206;-45
2021/04/26 08:30:10;;;;;;;4.57;3.40;;;11.70;69.60;;;;;;5075526;28;20249;-49
2021/04/26 08:32:36;;;;;;;5.87;3.60;;;11.60;68.60;;;;;;5074519;28;20182;-46
2021/04/26 08:35:03;;;;;;;13.07;6.17;;;11.80;72.70;;;;;;5075570;28;20261;-54
2021/04/26 08:37:29;;;;;;;5.73;3.90;;;12.20;73.10;;;;;;5072845;28;20214;-50
2021/04/26 08:39:55;;;;;;;5.67;3.57;;;12.30;69.50;;;;;;5074146;28;20177;-54
2021/04/26 08:42:20;;;;;;;8.30;3.77;;;12.50;69.50;;;;;;5073605;28;20179;-43
2021/04/26 08:44:46;;;;;;;6.73;3.50;;;12.60;70.30;;;;;;5073566;28;20526;-52
2021/04/26 08:47:12;;;;;;;5.17;3.67;;;12.70;71.70;;;;;;5073833;28;20202;-54
2021/04/26 08:49:38;;;;;;;4.60;3.53;;;13.00;71.50;;;;;;5074065;28;20180;-45
2021/04/26 08:52:07;;;;;;;5.70;3.70;;;13.20;72.80;;;;;;5073663;28;20170;-49
2021/04/26 08:54:33;;;;;;;5.63;3.67;;;13.30;69.60;;;;;;5075101;28;20182;-48
2021/04/26 08:56:59;;;;;;;5.20;3.80;;;13.00;67.20;;;;;;5074878;28;20202;-56
2021/04/26 08:59:25;;;;;;;4.00;3.60;;;13.20;72.10;;;;;;5074869;28;20190;-53
2021/04/26 09:02:05;;;;;;;5.17;3.80;;;13.40;70.00;;;;;;5074554;28;20554;-51
2021/04/26 09:04:35;;;;;;;4.90;3.70;;;13.40;67.20;;;;;;5074959;28;20193;-53
2021/04/26 09:07:03;;;;;;;4.60;3.37;;;13.60;71.30;;;;;;5074707;28;20206;-47
2021/04/26 09:09:36;;;;;;;5.53;3.30;;;13.90;71.10;;;;;;5074389;28;20193;-53
2021/04/26 09:12:02;;;;;;;4.73;3.80;;;13.90;67.80;;;;;;5074575;28;20176;-44
2021/04/26 09:14:48;;;;;;;4.53;3.60;;;14.10;67.10;;;;;;5074688;28;20204;-51
2021/04/26 09:17:34;;;;;;;5.87;4.17;;;14.00;65.70;;;;;;5075080;28;20204;-46
2021/04/26 09:20:15;;;;;;;5.47;3.80;;;13.90;65.10;;;;;;5074572;28;20174;-49
2021/04/26 09:22:43;;;;;;;5.07;3.77;;;13.70;66.50;;;;;;5074329;28;20604;-48
2021/04/26 09:25:32;;;;;;;4.33;3.53;;;13.90;69.00;;;;;;5074582;28;20230;-48
2021/04/26 09:28:04;;;;;;;5.27;3.57;;;14.20;70.30;;;;;;5074314;28;20193;-51
2021/04/26 09:30:33;;;;;;;4.20;3.37;;;14.60;65.90;;;;;;5073931;28;20188;-46
2021/04/26 09:33:27;;;;;;;4.23;3.30;;;14.80;66.20;;;;;;5074308;28;20191;-49
2021/04/26 09:35:57;;;;;;;4.43;3.63;;;14.90;67.30;;;;;;5074237;28;20194;-49
2021/04/26 09:38:34;;;;;;;5.40;3.47;;;15.10;68.90;;;;;;5073747;28;20666;-47
2021/04/26 09:41:19;;;;;;;3.73;3.40;;;15.20;69.60;;;;;;5073611;28;20281;-50
2021/04/26 09:43:47;;;;;;;8.40;3.90;;;15.40;65.70;;;;;;5074079;28;20185;-54
2021/04/26 09:46:13;;;;;;;10.17;4.23;;;15.40;65.80;;;;;;5074018;28;20353;-52
2021/04/26 09:48:39;;;;;;;5.87;3.50;;;15.20;61.90;;;;;;5073752;28;20291;-47
2021/04/26 09:51:08;;;;;;;7.20;3.50;;;15.30;65.80;;;;;;5073542;28;20178;-50
2021/04/26 09:53:39;;;;;;;4.10;3.57;;;15.50;63.80;;;;;;5073057;28;20174;-50
2021/04/26 09:56:12;;;;;;;4.87;3.47;;;15.70;65.30;;;;;;5073788;28;20208;-49
2021/04/26 09:58:40;;;;;;;6.77;4.03;;;15.90;65.50;;;;;;5072819;28;20545;-48
2021/04/26 10:01:06;;;;;;;4.63;3.37;;;16.00;66.30;;;;;;5073228;28;20187;-45
2021/04/26 10:03:32;;;;;;;6.47;4.10;;;16.10;67.70;;;;;;5073705;28;20512;-52
2021/04/26 10:05:58;;;;;;;4.83;3.33;;;16.10;62.60;;;;;;5073600;28;20538;-53
2021/04/26 10:08:24;;;;;;;7.50;4.00;;;16.10;65.50;;;;;;5073729;28;20194;-46
2021/04/26 10:10:50;;;;;;;5.27;3.70;;;16.10;62.50;;;;;;5072788;28;20213;-53
2021/04/26 10:13:20;;;;;;;5.33;3.60;;;16.10;63.60;;;;;;5073090;28;20553;-43
2021/04/26 10:15:47;;;;;;;4.83;3.33;;;16.10;65.40;;;;;;5074026;28;20189;-48
2021/04/26 10:18:14;;;;;;;5.03;3.40;;;16.30;61.50;;;;;;5072562;28;20170;-49
2021/04/26 10:20:43;;;;;;;5.07;3.50;;;16.50;63.30;;;;;;5073253;28;20179;-51
2021/04/26 10:23:38;;;;;;;7.33;3.30;;;16.40;59.40;;;;;;5073373;28;20206;-47
2021/04/26 10:26:04;;;;;;;4.97;3.43;;;16.50;59.10;;;;;;5073666;28;20198;-44
2021/04/26 10:28:34;;;;;;;3.60;2.60;;;16.50;61.90;;;;;;5073443;28;20260;-51
2021/04/26 10:31:07;;;;;;;4.93;3.70;;;16.70;60.60;;;;;;5073127;28;20175;-53
2021/04/26 10:34:00;;;;;;;3.40;3.03;;;16.90;64.70;;;;;;5073759;28;20182;-52
2021/04/26 10:36:46;;;;;;;3.37;2.93;;;17.20;65.00;;;;;;5069649;28;20233;-45
2021/04/26 10:39:17;;;;;;;5.20;3.03;;;17.50;64.50;;;;;;5073157;28;20204;-42
2021/04/26 10:41:49;;;;;;;5.67;2.97;;;17.80;61.80;;;;;;5072505;28;20184;-46
2021/04/26 10:44:35;;;;;;;4.73;3.03;;;18.10;64.70;;;;;;5073735;28;20177;-45
2021/04/26 10:47:23;;;;;;;3.87;2.80;;;18.00;61.50;;;;;;5072721;28;20212;-55
2021/04/26 10:50:16;;;;;;;6.03;3.03;;;18.20;59.50;;;;;;5073390;28;20190;-50
2021/04/26 10:52:48;;;;;;;4.27;2.77;;;18.40;58.10;;;;;;5072962;28;20201;-43
2021/04/26 10:55:22;;;;;;;3.80;2.83;;;18.70;59.30;;;;;;5073948;28;20170;-53
2021/04/26 10:58:02;;;;;;;7.03;2.97;;;18.80;58.10;;;;;;5073582;28;20608;-48
2021/04/26 11:00:29;;;;;;;5.37;3.00;;;19.00;58.30;;;;;;5073518;28;20171;-55
2021/04/26 11:02:58;;;;;;;4.30;2.93;;;18.90;60.70;;;;;;5073301;28;20170;-45
2021/04/26 11:05:28;;;;;;;2.83;2.50;;;19.00;57.20;;;;;;5073526;28;20171;-55
2021/04/26 11:08:02;;;;;;;4.00;2.77;;;19.10;55.90;;;;;;5073150;28;20664;-46
2021/04/26 11:10:50;;;;;;;3.77;3.13;;;19.10;57.30;;;;;;5073033;28;20171;-47
2021/04/26 11:13:31;;;;;;;3.03;2.77;;;19.10;56.40;;;;;;5072809;28;20179;-45
2021/04/26 11:16:04;;;;;;;4.50;2.87;;;18.90;59.00;;;;;;5076017;28;20190;-47
2021/04/26 11:18:31;;;;;;;3.40;2.63;;;19.10;58.70;;;;;;5075901;28;20216;-45
2021/04/26 11:20:57;;;;;;;4.73;3.03;;;19.20;60.20;;;;;;5077168;28;20511;-53
2021/04/26 11:23:48;;;;;;;2.87;2.53;;;19.50;57.30;;;;;;5076743;28;20645;-49
2021/04/26 11:26:19;;;;;;;3.30;2.70;;;19.70;58.20;;;;;;5076920;28;20203;-46
2021/04/26 11:29:05;;;;;;;3.90;3.10;;;20.00;57.00;;;;;;5076580;28;20206;-46
2021/04/26 11:31:43;;;;;;;3.00;2.70;;;20.00;56.30;;;;;;5076619;28;20634;-46
2021/04/26 11:34:19;;;;;;;4.97;3.30;;;20.00;54.60;;;;;;5077287;28;20178;-54
2021/04/26 11:37:05;;;;;;;5.13;3.33;;;19.90;50.70;;;;;;5076484;28;20251;-52
2021/04/26 11:39:36;;;;;;;6.63;3.40;;;19.70;52.10;;;;;;5025587;28;20198;-47
2021/04/26 11:42:04;;;;;;;4.27;3.20;;;19.20;49.90;;;;;;5076566;28;20171;-47
2021/04/26 11:44:35;;;;;;;3.20;2.90;;;19.00;53.10;;;;;;5076322;28;20175;-46
2021/04/26 11:47:01;;;;;;;4.03;3.43;;;19.00;52.40;;;;;;5076193;28;20195;-45
2021/04/26 11:49:27;;;;;;;5.47;2.97;;;19.10;56.20;;;;;;5076958;28;20167;-51
2021/04/26 11:51:54;;;;;;;4.17;2.93;;;19.20;55.80;;;;;;5076407;28;20166;-48
2021/04/26 11:54:22;;;;;;;5.83;3.00;;;19.40;55.60;;;;;;5076766;28;20216;-53
2021/04/26 11:57:06;;;;;;;4.73;2.97;;;20.00;56.70;;;;;;5074886;28;20729;-45
2021/04/26 11:59:33;;;;;;;3.63;2.53;;;20.30;55.50;;;;;;5076174;28;20175;-52
2021/04/26 12:01:59;;;;;;;3.50;2.90;;;20.60;54.20;;;;;;5075809;28;20178;-47
2021/04/26 12:04:41;;;;;;;3.87;2.90;;;21.00;50.60;;;;;;5075225;28;20186;-50
2021/04/26 12:07:11;;;;;;;3.20;2.80;;;21.10;52.80;;;;;;5075806;28;20213;-42
2021/04/26 12:09:38;;;;;;;4.93;3.00;;;20.90;52.60;;;;;;5075985;28;20171;-46
2021/04/26 12:12:07;;;;;;;5.75;2.90;;;21.00;54.70;;;;;;5075707;28;20254;-48
2021/04/26 12:14:33;;;;;;;3.53;2.83;;;21.10;51.80;;;;;;5075977;28;20166;-47
2021/04/26 12:17:18;;;;;;;3.20;2.90;;;21.00;53.60;;;;;;5064146;28;20199;-47
2021/04/26 12:19:46;;;;;;;4.25;3.10;;;21.00;53.90;;;;;;5063507;28;20191;-48
2021/04/26 12:22:12;;;;;;;3.20;2.90;;;21.30;52.10;;;;;;5065134;28;20636;-49
2021/04/26 12:24:40;;;;;;;3.47;2.80;;;21.40;54.20;;;;;;5063402;28;20177;-51
2021/04/26 12:27:08;;;;;;;3.50;2.70;;;21.60;50.60;;;;;;5063786;28;20243;-48
2021/04/26 12:29:34;;;;;;;3.97;2.75;;;21.40;52.40;;;;;;5066238;28;20182;-44
2021/04/26 12:32:13;;;;;;;3.33;2.97;;;21.40;50.40;;;;;;5054274;28;20247;-42
2021/04/26 12:35:00;;;;;;;3.50;2.95;;;21.10;47.80;;;;;;5058459;28;20168;-51
2021/04/26 12:37:35;;;;;;;4.45;3.40;;;20.90;48.90;;;;;;5068252;28;20199;-55
2021/04/26 12:40:21;;;;;;;5.35;3.22;;;20.30;51.10;;;;;;5038168;28;20240;-52
2021/04/26 12:42:50;;;;;;;5.17;3.20;;;20.00;50.70;;;;;;5052924;28;20493;-49
2021/04/26 12:45:35;;;;;;;3.23;2.90;;;19.80;48.60;;;;;;5052748;28;20175;-56
2021/04/26 12:48:03;;;;;;;3.57;2.90;;;19.80;50.00;;;;;;5052824;28;20222;-47
2021/04/26 12:50:41;;;;;;;3.08;2.78;;;19.80;50.80;;;;;;5051000;28;20262;-47
2021/04/26 12:53:15;;;;;;;2.92;2.63;;;20.50;52.20;;;;;;5052547;28;20523;-46
2021/04/26 12:56:10;;;;;;;3.92;2.90;;;21.30;52.40;;;;;;5052888;28;20219;-50
2021/04/26 12:58:54;;;;;;;4.28;3.00;;;22.10;51.10;;;;;;5047154;28;20570;-51
2021/04/26 13:01:22;;;;;;;2.80;2.60;;;23.50;46.70;;;;;;5054289;28;20170;-46